createdAt,value
2018-05-26T00:02:12.147Z,15.90
2018-05-26T00:04:39.608Z,15.90
2018-05-26T00:07:07.157Z,15.80
2018-05-26T00:09:34.653Z,15.70
2018-05-26T00:12:02.119Z,15.70
2018-05-26T00:14:29.581Z,15.60
2018-05-26T00:16:57.137Z,15.60
2018-05-26T00:19:24.668Z,15.50
2018-05-26T00:21:52.270Z,15.50
2018-05-26T00:24:21.427Z,15.50
2018-05-26T00:26:48.897Z,15.50
2018-05-26T00:29:16.369Z,15.40
2018-05-26T00:31:43.819Z,15.50
2018-05-26T00:34:11.300Z,15.50
2018-05-26T00:36:38.883Z,15.50
2018-05-26T00:39:06.365Z,15.50
2018-05-26T00:41:42.683Z,15.40
2018-05-26T00:44:10.151Z,15.40
2018-05-26T00:46:38.376Z,15.30
2018-05-26T00:49:05.850Z,15.30
2018-05-26T00:51:33.329Z,15.30
2018-05-26T00:54:00.892Z,15.30
2018-05-26T00:56:29.162Z,15.30
2018-05-26T00:58:56.620Z,15.30
2018-05-26T01:01:24.179Z,15.30
2018-05-26T01:03:51.655Z,15.30
2018-05-26T01:06:19.118Z,15.30
2018-05-26T01:08:46.585Z,15.30
2018-05-26T01:11:14.812Z,15.20
2018-05-26T01:13:42.408Z,15.20
2018-05-26T01:16:09.956Z,15.10
2018-05-26T01:18:37.513Z,15.00
2018-05-26T01:21:04.976Z,14.90
2018-05-26T01:23:32.532Z,14.90
2018-05-26T01:26:00.765Z,14.80
2018-05-26T01:28:28.284Z,14.80
2018-05-26T01:30:56.548Z,14.60
2018-05-26T01:33:25.533Z,14.70
2018-05-26T01:35:53.004Z,14.70
2018-05-26T01:38:21.998Z,14.70
2018-05-26T01:40:50.971Z,14.70
2018-05-26T01:43:18.450Z,14.70
2018-05-26T01:45:45.917Z,14.80
2018-05-26T01:48:13.382Z,14.70
2018-05-26T01:50:40.920Z,14.70
2018-05-26T01:53:09.192Z,14.70
2018-05-26T01:55:36.757Z,14.70
2018-05-26T01:58:04.236Z,14.70
2018-05-26T02:00:31.709Z,14.60
2018-05-26T02:02:59.946Z,14.60
2018-05-26T02:05:27.513Z,14.60
2018-05-26T02:07:54.988Z,14.50
2018-05-26T02:10:23.314Z,14.30
2018-05-26T02:12:50.784Z,14.20
2018-05-26T02:15:18.249Z,14.10
2018-05-26T02:17:45.824Z,14.10
2018-05-26T02:20:13.346Z,14.20
2018-05-26T02:22:40.812Z,14.20
2018-05-26T02:25:08.272Z,14.20
2018-05-26T02:27:35.748Z,14.20
2018-05-26T02:30:03.212Z,14.30
2018-05-26T02:32:30.668Z,14.30
2018-05-26T02:34:58.160Z,14.30
2018-05-26T02:37:26.394Z,14.30
2018-05-26T02:39:53.864Z,14.30
2018-05-26T02:42:21.317Z,14.30
2018-05-26T02:44:48.793Z,14.30
2018-05-26T02:47:16.253Z,14.20
2018-05-26T02:49:43.752Z,14.10
2018-05-26T02:52:11.214Z,14.00
2018-05-26T02:54:38.677Z,13.90
2018-05-26T02:57:06.138Z,13.70
2018-05-26T02:59:33.613Z,13.70
2018-05-26T03:02:01.084Z,13.80
2018-05-26T03:04:34.364Z,13.80
2018-05-26T03:07:07.544Z,13.80
2018-05-26T03:09:40.596Z,13.80
2018-05-26T03:12:14.624Z,13.90
2018-05-26T03:14:47.311Z,14.00
2018-05-26T03:17:19.157Z,13.90
2018-05-26T03:19:47.413Z,13.90
2018-05-26T03:22:14.880Z,13.90
2018-05-26T03:24:43.125Z,13.90
2018-05-26T03:27:10.589Z,13.90
2018-05-26T03:29:38.061Z,13.90
2018-05-26T03:32:05.516Z,13.90
2018-05-26T03:34:32.994Z,13.70
2018-05-26T03:37:00.448Z,13.80
2018-05-26T03:39:27.916Z,13.80
2018-05-26T03:41:56.147Z,13.80
2018-05-26T03:44:23.621Z,13.90
2018-05-26T03:46:51.235Z,13.90
2018-05-26T03:49:18.711Z,13.80
2018-05-26T03:51:46.182Z,13.70
2018-05-26T03:54:13.648Z,13.60
2018-05-26T03:56:52.920Z,13.60
2018-05-26T04:02:19.673Z,13.70
2018-05-26T04:04:47.132Z,13.70
2018-05-26T04:07:14.683Z,13.80
2018-05-26T04:09:42.144Z,13.70
2018-05-26T04:12:09.619Z,13.70
2018-05-26T04:14:37.081Z,13.70
2018-05-26T04:17:05.313Z,13.80
2018-05-26T04:19:32.885Z,13.80
2018-05-26T04:22:00.348Z,13.80
2018-05-26T04:24:27.835Z,13.90
2018-05-26T04:26:56.076Z,14.00
2018-05-26T04:29:23.547Z,13.90
2018-05-26T04:31:51.105Z,14.00
2018-05-26T04:34:18.660Z,14.00
2018-05-26T04:36:46.226Z,14.00
2018-05-26T04:39:13.692Z,14.10
2018-05-26T04:41:41.995Z,14.10
2018-05-26T04:44:10.234Z,14.20
2018-05-26T04:46:37.821Z,14.10
2018-05-26T04:49:06.064Z,14.20
2018-05-26T04:51:33.520Z,14.20
2018-05-26T04:54:01.001Z,14.40
2018-05-26T04:56:28.465Z,14.40
2018-05-26T04:58:55.946Z,14.50
2018-05-26T05:01:24.172Z,14.60
2018-05-26T05:03:51.633Z,14.60
2018-05-26T05:06:19.198Z,14.60
2018-05-26T05:08:46.757Z,14.60
2018-05-26T05:11:14.320Z,14.70
2018-05-26T05:13:41.880Z,14.90
2018-05-26T05:16:09.352Z,15.00
2018-05-26T05:18:36.815Z,15.00
2018-05-26T05:21:04.293Z,15.20
2018-05-26T05:23:32.528Z,15.50
2018-05-26T05:26:00.001Z,15.40
2018-05-26T05:28:27.464Z,15.70
2018-05-26T05:30:54.941Z,15.90
2018-05-26T05:33:23.195Z,16.20
2018-05-26T05:35:50.664Z,16.20
2018-05-26T05:38:18.145Z,16.30
2018-05-26T05:40:46.385Z,16.70
2018-05-26T05:43:13.855Z,16.70
2018-05-26T05:45:41.320Z,16.90
2018-05-26T05:48:08.860Z,17.00
2018-05-26T05:50:36.330Z,17.20
2018-05-26T05:53:03.792Z,17.30
2018-05-26T05:55:31.347Z,17.60
2018-05-26T05:57:58.907Z,17.80
2018-05-26T06:00:26.380Z,17.90
2018-05-26T06:02:53.837Z,18.10
2018-05-26T06:05:22.096Z,18.50
2018-05-26T06:07:49.653Z,18.50
2018-05-26T06:10:17.166Z,18.50
2018-05-26T06:12:44.590Z,18.80
2018-05-26T06:15:12.066Z,18.90
2018-05-26T06:17:40.300Z,19.10
2018-05-26T06:20:07.776Z,19.10
2018-05-26T06:22:35.244Z,19.30
2018-05-26T06:25:02.708Z,19.40
2018-05-26T06:27:30.937Z,19.70
2018-05-26T06:29:58.408Z,19.70
2018-05-26T06:32:25.872Z,19.80
2018-05-26T06:34:53.440Z,19.90
2018-05-26T06:37:20.900Z,20.10
2018-05-26T06:39:48.452Z,20.30
2018-05-26T06:42:15.908Z,20.40
2018-05-26T06:44:43.377Z,20.40
2018-05-26T06:47:12.568Z,20.80
2018-05-26T06:49:40.137Z,20.80
2018-05-26T06:52:07.688Z,20.90
2018-05-26T06:54:35.240Z,21.10
2018-05-26T06:57:02.703Z,21.30
2018-05-26T06:59:30.169Z,21.30
2018-05-26T07:01:59.140Z,21.70
2018-05-26T07:04:26.631Z,21.70
2018-05-26T07:06:54.145Z,21.90
2018-05-26T07:09:21.616Z,22.10
2018-05-26T07:11:49.096Z,22.30
2018-05-26T07:14:16.564Z,22.40
2018-05-26T07:16:44.029Z,22.50
2018-05-26T07:19:11.588Z,22.50
2018-05-26T07:21:39.044Z,22.50
2018-05-26T07:24:06.544Z,22.70
2018-05-26T07:26:34.030Z,22.90
2018-05-26T07:29:01.481Z,23.10
2018-05-26T07:31:28.955Z,23.20
2018-05-26T07:33:56.421Z,23.20
2018-05-26T07:36:23.895Z,23.30
2018-05-26T07:38:51.348Z,23.20
2018-05-26T07:41:18.829Z,23.40
2018-05-26T07:43:46.280Z,23.60
2018-05-26T07:46:13.756Z,23.80
2018-05-26T07:48:41.989Z,24.20
2018-05-26T07:51:09.460Z,24.10
2018-05-26T07:53:36.925Z,24.20
2018-05-26T07:56:04.389Z,24.20
2018-05-26T07:58:31.959Z,24.20
2018-05-26T08:00:59.548Z,24.30
2018-05-26T08:03:26.961Z,24.40
2018-05-26T08:05:54.431Z,24.50
2018-05-26T08:08:21.895Z,24.60
2018-05-26T08:10:50.177Z,24.90
2018-05-26T08:13:17.620Z,24.90
2018-05-26T08:15:45.170Z,25.10
2018-05-26T08:18:12.627Z,25.10
2018-05-26T08:20:40.109Z,25.40
2018-05-26T08:23:08.369Z,25.60
2018-05-26T08:25:35.926Z,25.60
2018-05-26T08:28:04.924Z,25.70
2018-05-26T08:30:32.388Z,25.60
2018-05-26T08:32:59.932Z,25.80
2018-05-26T08:35:27.497Z,25.80
2018-05-26T08:37:54.957Z,25.80
2018-05-26T08:40:22.437Z,25.70
2018-05-26T08:42:50.668Z,25.90
2018-05-26T08:45:18.153Z,25.80
2018-05-26T08:47:45.613Z,26.10
2018-05-26T08:50:13.079Z,26.20
2018-05-26T08:52:40.533Z,26.20
2018-05-26T08:55:08.030Z,26.40
2018-05-26T08:57:35.489Z,26.40
2018-05-26T09:00:02.940Z,26.50
2018-05-26T09:02:31.240Z,26.60
2018-05-26T09:04:58.845Z,26.60
2018-05-26T09:07:26.404Z,26.70
2018-05-26T09:09:54.348Z,26.70
2018-05-26T09:12:21.928Z,26.80
2018-05-26T09:14:49.401Z,27.00
2018-05-26T09:17:16.857Z,27.00
2018-05-26T09:19:44.311Z,27.20
2018-05-26T09:22:11.866Z,27.30
2018-05-26T09:24:39.430Z,27.20
2018-05-26T09:27:06.901Z,27.10
2018-05-26T09:29:34.368Z,27.40
2018-05-26T09:32:02.632Z,27.60
2018-05-26T09:34:30.125Z,27.60
2018-05-26T09:36:58.349Z,27.70
2018-05-26T09:39:25.813Z,27.70
2018-05-26T09:41:53.275Z,27.90
2018-05-26T09:44:20.727Z,28.10
2018-05-26T09:46:48.292Z,28.20
2018-05-26T09:49:15.747Z,28.40
2018-05-26T09:51:43.321Z,28.40
2018-05-26T09:54:11.550Z,28.50
2018-05-26T09:56:39.053Z,28.50
2018-05-26T09:59:06.615Z,28.40
2018-05-26T10:01:34.176Z,28.50
2018-05-26T10:04:01.630Z,28.60
2018-05-26T10:06:29.137Z,28.50
2018-05-26T10:08:57.356Z,28.70
2018-05-26T10:11:24.832Z,28.70
2018-05-26T10:13:52.276Z,28.60
2018-05-26T10:16:19.838Z,28.80
2018-05-26T10:18:47.308Z,28.80
2018-05-26T10:21:14.796Z,28.80
2018-05-26T10:23:43.021Z,29.20
2018-05-26T10:26:10.540Z,29.20
2018-05-26T10:28:38.068Z,29.50
2018-05-26T10:31:05.541Z,29.50
2018-05-26T10:33:33.759Z,29.60
2018-05-26T10:36:01.222Z,29.60
2018-05-26T10:38:28.684Z,29.60
2018-05-26T10:40:56.153Z,29.60
2018-05-26T10:43:23.627Z,29.70
2018-05-26T10:46:03.751Z,29.40
2018-05-26T10:48:31.313Z,29.40
2018-05-26T10:50:58.769Z,29.60
2018-05-26T10:53:26.241Z,29.50
2018-05-26T10:55:53.710Z,29.40
2018-05-26T10:58:21.174Z,29.30
2018-05-26T11:00:48.665Z,29.40
2018-05-26T11:03:16.901Z,29.90
2018-05-26T11:05:44.393Z,29.80
2018-05-26T11:08:11.855Z,30.10
2018-05-26T11:10:39.313Z,30.00
2018-05-26T11:13:06.855Z,30.00
2018-05-26T11:15:34.418Z,29.90
2018-05-26T11:18:02.145Z,29.80
2018-05-26T11:20:29.336Z,29.70
2018-05-26T11:22:58.390Z,29.70
2018-05-26T11:25:25.838Z,29.70
2018-05-26T11:27:53.347Z,29.60
2018-05-26T11:30:20.796Z,29.60
2018-05-26T11:32:48.353Z,29.90
2018-05-26T11:35:16.615Z,29.60
2018-05-26T11:37:44.081Z,29.60
2018-05-26T11:40:12.317Z,29.90
2018-05-26T11:42:40.549Z,30.10
2018-05-26T11:45:08.008Z,30.00
2018-05-26T11:47:35.478Z,30.00
2018-05-26T11:50:02.928Z,30.00
2018-05-26T11:52:30.448Z,30.00
2018-05-26T11:54:57.913Z,30.00
2018-05-26T11:57:25.389Z,30.00
2018-05-26T11:59:52.857Z,30.20
2018-05-26T12:02:20.491Z,30.40
2018-05-26T12:04:47.936Z,30.30
2018-05-26T12:07:15.406Z,30.40
2018-05-26T12:09:42.869Z,30.30
2018-05-26T12:12:10.336Z,30.40
2018-05-26T12:14:37.820Z,30.50
2018-05-26T12:17:05.302Z,30.70
2018-05-26T12:19:33.533Z,30.70
2018-05-26T12:22:00.992Z,30.80
2018-05-26T12:24:28.465Z,30.60
2018-05-26T12:26:55.935Z,30.50
2018-05-26T12:29:23.392Z,30.40
2018-05-26T12:31:50.958Z,30.50
2018-05-26T12:34:18.417Z,30.40
2018-05-26T12:36:47.385Z,30.30
2018-05-26T12:39:14.851Z,30.30
2018-05-26T12:41:42.316Z,30.30
2018-05-26T12:44:09.887Z,30.50
2018-05-26T12:46:37.444Z,30.30
2018-05-26T12:49:04.929Z,30.40
2018-05-26T12:51:33.160Z,30.30
2018-05-26T12:54:00.617Z,30.30
2018-05-26T12:56:28.198Z,30.20
2018-05-26T12:58:55.673Z,30.20
2018-05-26T13:01:23.218Z,30.40
2018-05-26T13:03:50.708Z,30.50
2018-05-26T13:06:18.945Z,30.60
2018-05-26T13:08:46.415Z,30.60
2018-05-26T13:11:13.869Z,30.70
2018-05-26T13:13:41.352Z,30.80
2018-05-26T13:16:09.630Z,30.90
2018-05-26T13:18:37.169Z,30.90
2018-05-26T13:21:04.733Z,31.00
2018-05-26T13:23:32.195Z,31.20
2018-05-26T13:25:59.655Z,31.20
2018-05-26T13:28:27.123Z,31.10
2018-05-26T13:30:54.580Z,31.20
2018-05-26T13:33:22.189Z,31.20
2018-05-26T13:35:49.685Z,31.00
2018-05-26T13:38:17.140Z,31.00
2018-05-26T13:40:44.705Z,31.30
2018-05-26T13:43:12.169Z,31.30
2018-05-26T13:45:39.637Z,31.40
2018-05-26T13:48:07.180Z,31.40
2018-05-26T13:50:34.657Z,31.50
2018-05-26T13:53:02.127Z,31.60
2018-05-26T13:55:30.434Z,31.50
2018-05-26T13:57:57.940Z,31.50
2018-05-26T14:00:25.510Z,31.40
2018-05-26T14:02:53.102Z,31.40
2018-05-26T14:05:21.328Z,31.40
2018-05-26T14:07:48.803Z,31.40
2018-05-26T14:10:16.260Z,31.30
2018-05-26T14:12:43.760Z,31.10
2018-05-26T14:15:11.280Z,30.90
2018-05-26T14:17:40.257Z,31.00
2018-05-26T14:20:07.712Z,31.00
2018-05-26T14:22:35.186Z,30.80
2018-05-26T14:25:02.636Z,30.80
2018-05-26T14:27:30.111Z,30.80
2018-05-26T14:29:57.572Z,30.70
2018-05-26T14:32:25.040Z,30.60
2018-05-26T14:34:52.500Z,30.40
2018-05-26T14:37:19.965Z,30.10
2018-05-26T14:39:48.207Z,29.70
2018-05-26T14:42:15.733Z,29.70
2018-05-26T14:44:43.132Z,29.80
2018-05-26T14:47:11.372Z,30.00
2018-05-26T14:49:38.836Z,30.00
2018-05-26T14:52:06.332Z,30.10
2018-05-26T14:54:33.892Z,30.20
2018-05-26T14:57:01.352Z,30.50
2018-05-26T14:59:30.732Z,30.60
2018-05-26T15:01:59.181Z,30.60
2018-05-26T15:04:27.982Z,30.70
2018-05-26T15:06:56.560Z,30.60
2018-05-26T15:09:24.641Z,30.70
2018-05-26T15:11:53.759Z,30.90
2018-05-26T15:14:21.841Z,30.80
2018-05-26T15:16:50.373Z,30.80
2018-05-26T15:19:19.418Z,30.80
2018-05-26T15:21:46.892Z,30.80
2018-05-26T15:24:14.361Z,30.80
2018-05-26T15:26:41.811Z,30.70
2018-05-26T15:29:09.369Z,30.90
2018-05-26T15:31:36.849Z,30.90
2018-05-26T15:34:04.306Z,31.00
2018-05-26T15:36:32.560Z,30.90
2018-05-26T15:39:00.033Z,30.90
2018-05-26T15:41:27.490Z,30.80
2018-05-26T15:43:54.957Z,30.80
2018-05-26T15:46:22.416Z,30.80
2018-05-26T15:48:49.875Z,30.70
2018-05-26T15:51:17.332Z,30.70
2018-05-26T15:53:44.791Z,30.80
2018-05-26T15:56:12.274Z,30.80
2018-05-26T15:58:40.519Z,30.70
2018-05-26T16:01:07.968Z,30.60
2018-05-26T16:03:35.429Z,30.60
2018-05-26T16:06:02.880Z,30.60
2018-05-26T16:08:30.364Z,30.60
2018-05-26T16:10:58.596Z,30.40
2018-05-26T16:13:26.056Z,30.40
2018-05-26T16:15:53.512Z,30.30
2018-05-26T16:18:20.993Z,30.20
2018-05-26T16:20:48.460Z,30.10
2018-05-26T16:23:15.920Z,30.00
2018-05-26T16:25:44.171Z,29.70
2018-05-26T16:28:11.633Z,29.70
2018-05-26T16:30:39.098Z,29.50
2018-05-26T16:33:06.564Z,29.40
2018-05-26T16:35:34.017Z,29.30
2018-05-26T16:38:01.504Z,29.20
2018-05-26T16:40:29.737Z,29.10
2018-05-26T16:42:57.201Z,29.10
2018-05-26T16:45:24.664Z,29.10
2018-05-26T16:47:52.133Z,29.10
2018-05-26T16:50:19.604Z,28.90
2018-05-26T16:52:47.066Z,28.80
2018-05-26T16:55:14.528Z,28.70
2018-05-26T16:57:41.993Z,28.60
2018-05-26T17:00:10.222Z,28.40
2018-05-26T17:02:37.687Z,28.40
2018-05-26T17:05:05.161Z,28.40
2018-05-26T17:07:32.616Z,28.40
2018-05-26T17:10:00.090Z,28.30
2018-05-26T17:12:27.544Z,28.10
2018-05-26T17:14:55.048Z,28.10
2018-05-26T17:17:22.518Z,28.10
2018-05-26T17:19:50.079Z,28.00
2018-05-26T17:22:17.944Z,28.00
2018-05-26T17:24:45.425Z,28.00
2018-05-26T17:27:12.884Z,28.00
2018-05-26T17:29:40.359Z,27.90
2018-05-26T17:32:07.817Z,27.90
2018-05-26T17:34:35.296Z,27.80
2018-05-26T17:37:02.765Z,27.70
2018-05-26T17:39:31.077Z,27.60
2018-05-26T17:41:58.531Z,27.60
2018-05-26T17:44:25.992Z,27.60
2018-05-26T17:46:53.477Z,27.50
2018-05-26T17:49:20.936Z,27.50
2018-05-26T17:51:48.397Z,27.40
2018-05-26T17:54:15.864Z,27.40
2018-05-26T17:56:43.328Z,27.30
2018-05-26T17:59:10.809Z,27.20
2018-05-26T18:01:39.032Z,27.10
2018-05-26T18:04:06.503Z,27.10
2018-05-26T18:06:33.973Z,27.00
2018-05-26T18:09:01.433Z,27.00
2018-05-26T18:11:28.896Z,27.00
2018-05-26T18:13:56.356Z,26.80
2018-05-26T18:16:23.808Z,26.80
2018-05-26T18:18:51.289Z,26.70
2018-05-26T18:21:18.747Z,26.70
2018-05-26T18:23:46.220Z,26.60
2018-05-26T18:26:14.442Z,26.40
2018-05-26T18:28:41.910Z,26.30
2018-05-26T18:31:09.365Z,26.30
2018-05-26T18:33:36.835Z,26.20
2018-05-26T18:36:05.063Z,26.00
2018-05-26T18:38:33.350Z,26.00
2018-05-26T18:41:00.820Z,25.90
2018-05-26T18:43:28.277Z,25.90
2018-05-26T18:45:55.736Z,25.90
2018-05-26T18:48:23.199Z,25.80
2018-05-26T18:50:50.651Z,25.70
2018-05-26T18:53:18.113Z,25.50
2018-05-26T18:55:45.589Z,25.50
2018-05-26T18:58:13.053Z,25.30
2018-05-26T19:00:40.519Z,25.20
2018-05-26T19:03:07.981Z,25.10
2018-05-26T19:05:35.445Z,25.10
2018-05-26T19:08:02.910Z,24.80
2018-05-26T19:10:30.419Z,24.70
2018-05-26T19:12:57.973Z,24.60
2018-05-26T19:15:25.453Z,24.40
2018-05-26T19:17:52.907Z,24.40
2018-05-26T19:20:20.384Z,24.40
2018-05-26T19:22:47.845Z,24.30
2018-05-26T19:25:15.304Z,24.20
2018-05-26T19:27:42.768Z,24.10
2018-05-26T19:30:10.241Z,23.80
2018-05-26T19:32:37.697Z,23.70
2018-05-26T19:35:05.179Z,23.60
2018-05-26T19:37:33.398Z,23.50
2018-05-26T19:40:00.868Z,23.50
2018-05-26T19:42:28.334Z,23.40
2018-05-26T19:44:55.800Z,23.30
2018-05-26T19:47:23.255Z,23.30
2018-05-26T19:49:50.748Z,23.20
2018-05-26T19:52:18.184Z,23.10
2018-05-26T19:54:45.661Z,23.10
2018-05-26T19:57:13.879Z,22.80
2018-05-26T19:59:41.368Z,22.80
2018-05-26T20:02:08.819Z,22.70
2018-05-26T20:04:36.292Z,22.60
2018-05-26T20:07:03.752Z,22.50
2018-05-26T20:09:31.444Z,22.30
2018-05-26T20:11:59.696Z,22.20
2018-05-26T20:14:27.151Z,22.20
2018-05-26T20:16:54.616Z,22.10
2018-05-26T20:19:22.080Z,21.90
2018-05-26T20:21:50.745Z,21.50
2018-05-26T20:24:18.217Z,21.50
2018-05-26T20:26:45.677Z,21.30
2018-05-26T20:29:13.144Z,21.10
2018-05-26T20:31:41.368Z,20.80
2018-05-26T20:34:08.828Z,20.80
2018-05-26T20:36:36.294Z,20.80
2018-05-26T20:39:03.752Z,20.80
2018-05-26T20:41:31.216Z,20.80
2018-05-26T20:43:59.471Z,20.80
2018-05-26T20:46:26.925Z,20.80
2018-05-26T20:48:54.397Z,20.90
2018-05-26T20:51:21.897Z,20.80
2018-05-26T20:53:49.360Z,20.70
2018-05-26T20:56:16.909Z,20.60
2018-05-26T20:58:44.381Z,20.50
2018-05-26T21:01:11.843Z,20.20
2018-05-26T21:03:40.064Z,20.10
2018-05-26T21:06:07.536Z,20.10
2018-05-26T21:08:34.997Z,19.90
2018-05-26T21:11:02.456Z,19.80
2018-05-26T21:13:29.915Z,19.70
2018-05-26T21:15:57.391Z,19.80
2018-05-26T21:18:24.971Z,19.90
2018-05-26T21:20:52.440Z,19.90
2018-05-26T21:23:20.659Z,19.80
2018-05-26T21:25:48.166Z,19.80
2018-05-26T21:28:15.717Z,19.70
2018-05-26T21:30:43.191Z,19.60
2018-05-26T21:33:11.408Z,19.30
2018-05-26T21:35:38.891Z,19.30
2018-05-26T21:38:06.365Z,19.30
2018-05-26T21:40:33.837Z,19.40
2018-05-26T21:43:01.381Z,19.40
2018-05-26T21:45:30.358Z,19.10
2018-05-26T21:47:57.839Z,19.10
2018-05-26T21:50:25.295Z,19.10
2018-05-26T21:52:52.756Z,19.10
2018-05-26T21:55:20.228Z,19.10
2018-05-26T21:57:48.447Z,18.90
2018-05-26T22:00:15.936Z,18.90
2018-05-26T22:02:43.384Z,18.80
2018-05-26T22:05:10.862Z,18.60
2018-05-26T22:07:38.332Z,18.50
2018-05-26T22:10:05.794Z,18.50
2018-05-26T22:12:34.017Z,18.60
2018-05-26T22:15:01.488Z,18.60
2018-05-26T22:17:28.945Z,18.60
2018-05-26T22:19:56.419Z,18.60
2018-05-26T22:22:23.888Z,18.50
2018-05-26T22:24:51.404Z,18.50
2018-05-26T22:27:18.910Z,18.50
2018-05-26T22:29:46.385Z,18.40
2018-05-26T22:32:13.840Z,18.50
2018-05-26T22:34:42.092Z,17.90
2018-05-26T22:37:09.548Z,17.90
2018-05-26T22:39:37.689Z,17.70
2018-05-26T22:42:05.152Z,17.70
2018-05-26T22:44:32.648Z,17.80
2018-05-26T22:47:00.873Z,17.90
2018-05-26T22:49:28.331Z,17.80
2018-05-26T22:51:55.799Z,17.90
2018-05-26T22:54:23.260Z,17.90
2018-05-26T22:56:51.142Z,18.00
2018-05-26T22:59:18.606Z,18.00
2018-05-26T23:01:46.086Z,18.00
2018-05-26T23:04:13.641Z,18.00
2018-05-26T23:06:41.278Z,17.90
2018-05-26T23:09:08.769Z,17.90
2018-05-26T23:11:36.239Z,17.90
2018-05-26T23:14:03.710Z,17.80
2018-05-26T23:16:31.938Z,17.80
2018-05-26T23:18:59.445Z,17.80
2018-05-26T23:21:27.680Z,17.70
2018-05-26T23:23:55.156Z,17.70
2018-05-26T23:26:22.620Z,17.60
2018-05-26T23:28:50.852Z,17.60
2018-05-26T23:31:18.361Z,17.50
2018-05-26T23:33:47.333Z,17.40
2018-05-26T23:36:14.800Z,17.40
2018-05-26T23:38:42.260Z,17.40
2018-05-26T23:41:09.728Z,17.30
2018-05-26T23:43:37.195Z,17.30
2018-05-26T23:46:05.430Z,17.30
2018-05-26T23:48:32.930Z,17.30
2018-05-26T23:51:00.385Z,17.30
2018-05-26T23:53:27.856Z,17.20
2018-05-26T23:55:56.118Z,16.90
2018-05-26T23:58:23.667Z,16.80
